sensor_id;sensor_type;location;lat;lon;timestamp;pressure;altitude;pressure_sealevel;temperature;humidity
40596;BME280;26304;48.794;9.820;2023-05-20T00:04:29;96445.56;;;16.53;58.44
40596;BME280;26304;48.794;9.820;2023-05-20T00:10:13;96441.00;;;16.50;58.70
40596;BME280;26304;48.794;9.820;2023-05-20T00:15:55;96427.38;;;16.41;58.68
40596;BME280;26304;48.794;9.820;2023-05-20T00:21:38;96430.34;;;16.12;60.05
40596;BME280;26304;48.794;9.820;2023-05-20T00:27:22;96427.88;;;16.23;59.68
40596;BME280;26304;48.794;9.820;2023-05-20T00:33:04;96431.91;;;16.17;59.49
40596;BME280;26304;48.794;9.820;2023-05-20T00:38:47;96430.75;;;16.14;60.11
40596;BME280;26304;48.794;9.820;2023-05-20T00:44:30;96423.13;;;16.06;59.87
40596;BME280;26304;48.794;9.820;2023-05-20T00:50:13;96422.31;;;16.02;60.44
40596;BME280;26304;48.794;9.820;2023-05-20T00:55:56;96426.47;;;16.03;60.12
40596;BME280;26304;48.794;9.820;2023-05-20T01:01:39;96420.25;;;16.14;59.71
40596;BME280;26304;48.794;9.820;2023-05-20T01:07:22;96414.78;;;16.00;60.11
40596;BME280;26304;48.794;9.820;2023-05-20T01:13:09;96420.69;;;15.93;60.73
40596;BME280;26304;48.794;9.820;2023-05-20T01:18:54;96409.97;;;15.79;60.98
40596;BME280;26304;48.794;9.820;2023-05-20T01:24:40;96408.84;;;15.76;60.85
40596;BME280;26304;48.794;9.820;2023-05-20T01:30:25;96399.63;;;15.67;61.45
40596;BME280;26304;48.794;9.820;2023-05-20T01:36:10;96396.31;;;15.70;61.23
40596;BME280;26304;48.794;9.820;2023-05-20T01:41:54;96395.97;;;15.71;61.54
40596;BME280;26304;48.794;9.820;2023-05-20T01:47:37;96398.66;;;15.75;60.98
40596;BME280;26304;48.794;9.820;2023-05-20T01:53:19;96399.41;;;15.75;60.54
40596;BME280;26304;48.794;9.820;2023-05-20T01:59:03;96391.78;;;15.67;61.42
40596;BME280;26304;48.794;9.820;2023-05-20T02:04:48;96391.38;;;15.41;62.15
40596;BME280;26304;48.794;9.820;2023-05-20T02:10:31;96382.97;;;15.32;62.63
40596;BME280;26304;48.794;9.820;2023-05-20T02:16:15;96379.53;;;15.28;62.69
40596;BME280;26304;48.794;9.820;2023-05-20T02:21:57;96381.00;;;15.49;61.52
40596;BME280;26304;48.794;9.820;2023-05-20T02:27:39;96383.03;;;15.36;62.66
40596;BME280;26304;48.794;9.820;2023-05-20T02:33:23;96385.81;;;15.23;63.32
40596;BME280;26304;48.794;9.820;2023-05-20T02:39:09;96386.78;;;15.15;63.53
40596;BME280;26304;48.794;9.820;2023-05-20T02:44:52;96388.38;;;15.00;63.67
40596;BME280;26304;48.794;9.820;2023-05-20T02:50:39;96384.31;;;15.03;63.77
40596;BME280;26304;48.794;9.820;2023-05-20T02:56:22;96377.16;;;15.00;64.24
40596;BME280;26304;48.794;9.820;2023-05-20T03:02:04;96391.47;;;15.06;64.35
40596;BME280;26304;48.794;9.820;2023-05-20T03:07:48;96390.09;;;15.12;63.44
40596;BME280;26304;48.794;9.820;2023-05-20T03:13:31;96390.19;;;15.16;63.81
40596;BME280;26304;48.794;9.820;2023-05-20T03:19:14;96375.41;;;15.27;63.17
40596;BME280;26304;48.794;9.820;2023-05-20T03:24:58;96369.09;;;15.51;62.18
40596;BME280;26304;48.794;9.820;2023-05-20T03:30:42;96362.09;;;15.36;62.81
40596;BME280;26304;48.794;9.820;2023-05-20T03:36:24;96373.72;;;15.61;61.55
40596;BME280;26304;48.794;9.820;2023-05-20T03:42:08;96380.00;;;15.34;62.95
40596;BME280;26304;48.794;9.820;2023-05-20T03:47:50;96375.75;;;15.49;62.21
40596;BME280;26304;48.794;9.820;2023-05-20T03:53:33;96378.97;;;15.38;62.73
40596;BME280;26304;48.794;9.820;2023-05-20T03:59:17;96383.22;;;15.47;62.85
40596;BME280;26304;48.794;9.820;2023-05-20T04:04:59;96375.31;;;15.89;61.42
40596;BME280;26304;48.794;9.820;2023-05-20T04:10:42;96369.94;;;16.05;60.65
40596;BME280;26304;48.794;9.820;2023-05-20T04:16:26;96376.09;;;16.16;60.22
40596;BME280;26304;48.794;9.820;2023-05-20T04:22:09;96384.50;;;16.29;59.09
40596;BME280;26304;48.794;9.820;2023-05-20T04:27:51;96374.41;;;16.31;58.82
40596;BME280;26304;48.794;9.820;2023-05-20T04:33:35;96374.53;;;16.39;58.77
40596;BME280;26304;48.794;9.820;2023-05-20T04:39:18;96372.47;;;16.55;58.44
40596;BME280;26304;48.794;9.820;2023-05-20T04:45:01;96381.91;;;16.60;59.17
40596;BME280;26304;48.794;9.820;2023-05-20T04:50:47;96388.00;;;16.67;58.65
40596;BME280;26304;48.794;9.820;2023-05-20T04:56:30;96383.63;;;16.79;59.75
40596;BME280;26304;48.794;9.820;2023-05-20T05:02:13;96383.81;;;16.93;59.57
40596;BME280;26304;48.794;9.820;2023-05-20T05:07:57;96380.03;;;16.91;59.55
40596;BME280;26304;48.794;9.820;2023-05-20T05:13:39;96374.75;;;16.87;59.03
40596;BME280;26304;48.794;9.820;2023-05-20T05:19:22;96361.63;;;16.87;58.65
40596;BME280;26304;48.794;9.820;2023-05-20T05:25:07;96359.41;;;16.93;58.86
40596;BME280;26304;48.794;9.820;2023-05-20T05:30:50;96360.97;;;16.97;59.57
40596;BME280;26304;48.794;9.820;2023-05-20T05:36:32;96360.72;;;17.10;58.50
40596;BME280;26304;48.794;9.820;2023-05-20T05:42:16;96348.44;;;17.17;59.17
40596;BME280;26304;48.794;9.820;2023-05-20T05:47:58;96356.69;;;17.19;59.06
40596;BME280;26304;48.794;9.820;2023-05-20T05:53:41;96342.09;;;17.22;58.75
40596;BME280;26304;48.794;9.820;2023-05-20T05:59:25;96349.56;;;17.20;58.98
40596;BME280;26304;48.794;9.820;2023-05-20T06:05:08;96339.03;;;17.16;59.13
40596;BME280;26304;48.794;9.820;2023-05-20T06:10:51;96336.72;;;17.11;58.86
40596;BME280;26304;48.794;9.820;2023-05-20T06:16:34;96337.81;;;17.06;59.27
40596;BME280;26304;48.794;9.820;2023-05-20T06:22:17;96333.59;;;16.98;59.31
40596;BME280;26304;48.794;9.820;2023-05-20T06:27:59;96323.28;;;17.20;59.08
40596;BME280;26304;48.794;9.820;2023-05-20T06:33:43;96330.03;;;17.17;58.99
40596;BME280;26304;48.794;9.820;2023-05-20T06:39:25;96319.56;;;17.21;58.42
40596;BME280;26304;48.794;9.820;2023-05-20T06:45:09;96319.94;;;17.23;58.41
40596;BME280;26304;48.794;9.820;2023-05-20T06:50:52;96318.44;;;17.22;58.13
40596;BME280;26304;48.794;9.820;2023-05-20T06:56:35;96322.56;;;17.23;58.74
40596;BME280;26304;48.794;9.820;2023-05-20T07:02:17;96313.59;;;17.24;58.58
40596;BME280;26304;48.794;9.820;2023-05-20T07:08:01;96313.59;;;17.24;58.26
40596;BME280;26304;48.794;9.820;2023-05-20T07:13:43;96315.47;;;17.23;58.00
40596;BME280;26304;48.794;9.820;2023-05-20T07:19:26;96312.88;;;17.27;58.46
40596;BME280;26304;48.794;9.820;2023-05-20T07:25:10;96313.69;;;17.35;58.26
40596;BME280;26304;48.794;9.820;2023-05-20T07:30:52;96309.16;;;17.35;58.60
40596;BME280;26304;48.794;9.820;2023-05-20T07:36:36;96296.41;;;17.37;58.00
40596;BME280;26304;48.794;9.820;2023-05-20T07:42:20;96294.59;;;17.45;58.00
40596;BME280;26304;48.794;9.820;2023-05-20T07:48:03;96295.75;;;17.44;57.99
40596;BME280;26304;48.794;9.820;2023-05-20T07:53:45;96288.59;;;17.41;58.81
40596;BME280;26304;48.794;9.820;2023-05-20T07:59:29;96275.50;;;17.52;58.36
40596;BME280;26304;48.794;9.820;2023-05-20T08:05:12;96277.09;;;17.60;58.62
40596;BME280;26304;48.794;9.820;2023-05-20T08:10:54;96272.59;;;17.64;59.38
40596;BME280;26304;48.794;9.820;2023-05-20T08:16:38;96277.13;;;17.67;58.95
40596;BME280;26304;48.794;9.820;2023-05-20T08:22:20;96286.19;;;17.73;58.73
40596;BME280;26304;48.794;9.820;2023-05-20T08:28:03;96284.63;;;17.65;59.20
40596;BME280;26304;48.794;9.820;2023-05-20T08:33:48;96280.31;;;17.91;58.98
40596;BME280;26304;48.794;9.820;2023-05-20T08:39:30;96275.06;;;17.98;58.73
40596;BME280;26304;48.794;9.820;2023-05-20T08:45:16;96276.94;;;17.97;58.81
40596;BME280;26304;48.794;9.820;2023-05-20T08:51:02;96278.09;;;18.00;58.79
40596;BME280;26304;48.794;9.820;2023-05-20T08:56:45;96276.59;;;17.99;58.77
40596;BME280;26304;48.794;9.820;2023-05-20T09:02:27;96275.53;;;18.11;58.52
40596;BME280;26304;48.794;9.820;2023-05-20T09:08:11;96282.28;;;18.08;58.48
40596;BME280;26304;48.794;9.820;2023-05-20T09:13:54;96276.63;;;18.06;58.18
40596;BME280;26304;48.794;9.820;2023-05-20T09:19:36;96274.75;;;18.10;58.99
40596;BME280;26304;48.794;9.820;2023-05-20T09:25:21;96264.66;;;18.16;58.75
40596;BME280;26304;48.794;9.820;2023-05-20T09:31:04;96270.69;;;18.24;58.53
40596;BME280;26304;48.794;9.820;2023-05-20T09:36:49;96266.22;;;18.35;58.32
40596;BME280;26304;48.794;9.820;2023-05-20T09:42:37;96277.88;;;18.38;58.27
40596;BME280;26304;48.794;9.820;2023-05-20T09:48:22;96265.50;;;18.49;57.92
40596;BME280;26304;48.794;9.820;2023-05-20T09:54:05;96261.75;;;18.54;57.67
40596;BME280;26304;48.794;9.820;2023-05-20T09:59:51;96263.28;;;18.58;57.09
40596;BME280;26304;48.794;9.820;2023-05-20T10:05:36;96245.63;;;18.66;57.20
40596;BME280;26304;48.794;9.820;2023-05-20T10:11:25;96227.22;;;18.73;57.21
40596;BME280;26304;48.794;9.820;2023-05-20T10:17:17;96223.44;;;18.74;57.01
40596;BME280;26304;48.794;9.820;2023-05-20T10:23:02;96227.22;;;18.73;57.25
40596;BME280;26304;48.794;9.820;2023-05-20T10:28:45;96223.50;;;18.88;56.85
40596;BME280;26304;48.794;9.820;2023-05-20T10:34:44;96209.94;;;18.90;56.93
40596;BME280;26304;48.794;9.820;2023-05-20T10:40:27;96208.41;;;18.78;57.47
40596;BME280;26304;48.794;9.820;2023-05-20T10:46:16;96208.44;;;18.93;57.02
40596;BME280;26304;48.794;9.820;2023-05-20T10:52:00;96208.44;;;19.00;56.42
40596;BME280;26304;48.794;9.820;2023-05-20T10:57:44;96197.53;;;19.09;56.74
40596;BME280;26304;48.794;9.820;2023-05-20T11:03:28;96197.16;;;19.03;56.95
40596;BME280;26304;48.794;9.820;2023-05-20T11:09:12;96196.41;;;18.92;57.63
40596;BME280;26304;48.794;9.820;2023-05-20T11:14:55;96181.34;;;18.92;57.01
40596;BME280;26304;48.794;9.820;2023-05-20T11:20:37;96188.13;;;18.90;57.14
40596;BME280;26304;48.794;9.820;2023-05-20T11:26:21;96180.56;;;18.81;57.28
40596;BME280;26304;48.794;9.820;2023-05-20T11:32:04;96173.06;;;18.94;57.15
40596;BME280;26304;48.794;9.820;2023-05-20T11:37:53;96179.84;;;19.09;56.73
40596;BME280;26304;48.794;9.820;2023-05-20T11:43:37;96170.78;;;19.06;57.03
40596;BME280;26304;48.794;9.820;2023-05-20T11:49:21;96162.53;;;19.04;56.91
40596;BME280;26304;48.794;9.820;2023-05-20T11:55:04;96149.75;;;18.96;57.19
40596;BME280;26304;48.794;9.820;2023-05-20T12:00:52;96152.75;;;18.98;57.14
40596;BME280;26304;48.794;9.820;2023-05-20T12:06:35;96144.84;;;18.94;57.72
40596;BME280;26304;48.794;9.820;2023-05-20T12:12:18;96148.97;;;18.92;57.04
40596;BME280;26304;48.794;9.820;2023-05-20T12:18:02;96146.34;;;18.92;57.27
40596;BME280;26304;48.794;9.820;2023-05-20T12:23:45;96141.09;;;18.92;56.67
40596;BME280;26304;48.794;9.820;2023-05-20T12:29:27;96138.81;;;18.94;57.41
40596;BME280;26304;48.794;9.820;2023-05-20T12:35:11;96145.22;;;18.93;57.20
40596;BME280;26304;48.794;9.820;2023-05-20T12:40:54;96144.09;;;18.94;57.65
40596;BME280;26304;48.794;9.820;2023-05-20T12:46:37;96152.00;;;18.94;57.54
40596;BME280;26304;48.794;9.820;2023-05-20T12:52:20;96137.69;;;18.95;57.00
40596;BME280;26304;48.794;9.820;2023-05-20T12:58:03;96124.16;;;18.96;57.50
40596;BME280;26304;48.794;9.820;2023-05-20T13:03:45;96130.16;;;18.97;57.71
40596;BME280;26304;48.794;9.820;2023-05-20T13:09:29;96132.78;;;18.97;57.20
40596;BME280;26304;48.794;9.820;2023-05-20T13:15:12;96127.53;;;18.97;57.06
40596;BME280;26304;48.794;9.820;2023-05-20T13:20:55;96124.13;;;19.00;56.85
40596;BME280;26304;48.794;9.820;2023-05-20T13:26:38;96125.28;;;19.02;57.51
40596;BME280;26304;48.794;9.820;2023-05-20T13:32:21;96117.00;;;19.04;57.57
40596;BME280;26304;48.794;9.820;2023-05-20T13:38:03;96112.09;;;19.06;58.61
40596;BME280;26304;48.794;9.820;2023-05-20T13:43:47;96107.16;;;19.26;57.01
40596;BME280;26304;48.794;9.820;2023-05-20T13:49:30;96098.13;;;19.27;57.08
40596;BME280;26304;48.794;9.820;2023-05-20T13:55:12;96090.97;;;19.28;56.73
40596;BME280;26304;48.794;9.820;2023-05-20T14:00:57;96103.34;;;19.38;57.39
40596;BME280;26304;48.794;9.820;2023-05-20T14:06:40;96088.63;;;19.51;57.02
40596;BME280;26304;48.794;9.820;2023-05-20T14:12:22;96089.78;;;19.50;56.70
40596;BME280;26304;48.794;9.820;2023-05-20T14:18:06;96077.31;;;19.58;56.88
40596;BME280;26304;48.794;9.820;2023-05-20T14:23:49;96066.69;;;19.69;56.41
40596;BME280;26304;48.794;9.820;2023-05-20T14:29:32;96062.22;;;19.62;56.59
40596;BME280;26304;48.794;9.820;2023-05-20T14:35:16;96058.91;;;19.47;56.93
40596;BME280;26304;48.794;9.820;2023-05-20T14:40:58;96053.91;;;19.67;57.40
40596;BME280;26304;48.794;9.820;2023-05-20T14:46:41;96039.56;;;19.75;56.93
40596;BME280;26304;48.794;9.820;2023-05-20T14:52:25;96033.50;;;19.82;56.24
40596;BME280;26304;48.794;9.820;2023-05-20T14:58:07;96034.28;;;19.72;57.24
40596;BME280;26304;48.794;9.820;2023-05-20T15:03:50;96024.53;;;19.65;56.92
40596;BME280;26304;48.794;9.820;2023-05-20T15:09:33;96044.16;;;19.57;56.96
40596;BME280;26304;48.794;9.820;2023-05-20T15:15:16;96043.41;;;19.53;57.05
40596;BME280;26304;48.794;9.820;2023-05-20T15:20:58;96044.94;;;19.50;56.56
40596;BME280;26304;48.794;9.820;2023-05-20T15:26:42;96050.22;;;19.50;56.58
40596;BME280;26304;48.794;9.820;2023-05-20T15:32:25;96041.94;;;19.52;56.64
40596;BME280;26304;48.794;9.820;2023-05-20T15:38:07;96040.03;;;19.52;56.69
40596;BME280;26304;48.794;9.820;2023-05-20T15:43:51;96036.66;;;19.52;56.99
40596;BME280;26304;48.794;9.820;2023-05-20T15:49:34;96037.41;;;19.52;56.68
40596;BME280;26304;48.794;9.820;2023-05-20T15:55:16;96042.69;;;19.52;56.83
40596;BME280;26304;48.794;9.820;2023-05-20T16:01:02;96038.13;;;19.53;56.47
40596;BME280;26304;48.794;9.820;2023-05-20T16:06:45;96042.28;;;19.54;56.78
40596;BME280;26304;48.794;9.820;2023-05-20T16:12:28;96035.13;;;19.54;56.50
40596;BME280;26304;48.794;9.820;2023-05-20T16:18:12;96024.56;;;19.54;56.49
40596;BME280;26304;48.794;9.820;2023-05-20T16:23:54;96021.94;;;19.54;56.71
40596;BME280;26304;48.794;9.820;2023-05-20T16:29:36;96026.81;;;19.56;56.66
40596;BME280;26304;48.794;9.820;2023-05-20T16:35:21;96020.44;;;19.57;56.66
40596;BME280;26304;48.794;9.820;2023-05-20T16:41:03;96031.72;;;19.57;56.43
40596;BME280;26304;48.794;9.820;2023-05-20T16:46:46;96034.34;;;19.57;56.70
40596;BME280;26304;48.794;9.820;2023-05-20T16:52:31;96035.13;;;19.58;56.24
40596;BME280;26304;48.794;9.820;2023-05-20T16:58:14;96045.28;;;19.59;56.76
40596;BME280;26304;48.794;9.820;2023-05-20T17:03:56;96054.69;;;19.60;56.05
40596;BME280;26304;48.794;9.820;2023-05-20T17:09:40;96049.41;;;19.60;56.42
40596;BME280;26304;48.794;9.820;2023-05-20T17:15:22;96054.69;;;19.60;56.09
40596;BME280;26304;48.794;9.820;2023-05-20T17:21:05;96060.28;;;19.73;55.82
40596;BME280;26304;48.794;9.820;2023-05-20T17:26:49;96053.91;;;19.71;56.57
40596;BME280;26304;48.794;9.820;2023-05-20T17:32:31;96064.41;;;19.85;55.88
40596;BME280;26304;48.794;9.820;2023-05-20T17:38:14;96054.50;;;20.00;56.16
40596;BME280;26304;48.794;9.820;2023-05-20T17:43:57;96055.16;;;20.19;56.13
40596;BME280;26304;48.794;9.820;2023-05-20T17:49:41;96067.22;;;20.16;55.90
40596;BME280;26304;48.794;9.820;2023-05-20T17:55:23;96072.84;;;20.18;55.56
40596;BME280;26304;48.794;9.820;2023-05-20T18:01:08;96076.66;;;20.17;55.44
40596;BME280;26304;48.794;9.820;2023-05-20T18:06:50;96073.19;;;20.24;55.31
40596;BME280;26304;48.794;9.820;2023-05-20T18:12:33;96071.69;;;20.26;55.98
40596;BME280;26304;48.794;9.820;2023-05-20T18:18:16;96083.13;;;20.02;56.68
40596;BME280;26304;48.794;9.820;2023-05-20T18:23:59;96083.56;;;19.93;56.66
40596;BME280;26304;48.794;9.820;2023-05-20T18:29:41;96078.22;;;20.04;56.25
40596;BME280;26304;48.794;9.820;2023-05-20T18:35:25;96085.34;;;20.14;56.63
40596;BME280;26304;48.794;9.820;2023-05-20T18:41:08;96085.25;;;20.28;55.83
40596;BME280;26304;48.794;9.820;2023-05-20T18:46:50;96088.19;;;20.34;55.87
40596;BME280;26304;48.794;9.820;2023-05-20T18:52:34;96086.69;;;20.37;55.33
40596;BME280;26304;48.794;9.820;2023-05-20T18:58:16;96082.28;;;20.19;55.49
40596;BME280;26304;48.794;9.820;2023-05-20T19:03:59;96079.59;;;20.26;55.02
40596;BME280;26304;48.794;9.820;2023-05-20T19:09:43;96080.00;;;20.25;55.59
40596;BME280;26304;48.794;9.820;2023-05-20T19:15:25;96092.41;;;20.24;55.14
40596;BME280;26304;48.794;9.820;2023-05-20T19:21:10;96093.09;;;20.36;54.75
40596;BME280;26304;48.794;9.820;2023-05-20T19:26:54;96100.16;;;20.49;54.34
40596;BME280;26304;48.794;9.820;2023-05-20T19:32:36;96104.72;;;20.49;54.48
40596;BME280;26304;48.794;9.820;2023-05-20T19:38:19;96106.97;;;20.47;54.21
40596;BME280;26304;48.794;9.820;2023-05-20T19:44:03;96108.81;;;20.50;54.06
40596;BME280;26304;48.794;9.820;2023-05-20T19:49:46;96108.44;;;20.51;54.29
40596;BME280;26304;48.794;9.820;2023-05-20T19:55:28;96099.03;;;19.94;54.79
40596;BME280;26304;48.794;9.820;2023-05-20T20:01:12;96096.50;;;19.62;54.74
40596;BME280;26304;48.794;9.820;2023-05-20T20:06:55;96099.50;;;19.68;54.90
40596;BME280;26304;48.794;9.820;2023-05-20T20:12:37;96102.50;;;19.66;55.02
40596;BME280;26304;48.794;9.820;2023-05-20T20:18:21;96099.88;;;19.59;55.10
40596;BME280;26304;48.794;9.820;2023-05-20T20:24:04;96101.03;;;19.54;55.66
40596;BME280;26304;48.794;9.820;2023-05-20T20:29:46;96093.94;;;19.44;55.48
40596;BME280;26304;48.794;9.820;2023-05-20T20:35:30;96102.25;;;19.35;55.54
40596;BME280;26304;48.794;9.820;2023-05-20T20:41:12;96103.75;;;19.36;55.77
40596;BME280;26304;48.794;9.820;2023-05-20T20:46:56;96101.09;;;19.36;55.79
40596;BME280;26304;48.794;9.820;2023-05-20T20:52:39;96106.75;;;19.42;55.15
40596;BME280;26304;48.794;9.820;2023-05-20T20:58:22;96104.88;;;19.39;55.36
40596;BME280;26304;48.794;9.820;2023-05-20T21:04:05;96097.75;;;19.32;55.64
40596;BME280;26304;48.794;9.820;2023-05-20T21:09:50;96090.97;;;19.24;55.37
40596;BME280;26304;48.794;9.820;2023-05-20T21:15:35;96085.72;;;19.20;55.28
40596;BME280;26304;48.794;9.820;2023-05-20T21:21:17;96085.00;;;19.16;55.11
40596;BME280;26304;48.794;9.820;2023-05-20T21:27:03;96082.75;;;18.97;55.45
40596;BME280;26304;48.794;9.820;2023-05-20T21:32:45;96073.34;;;19.03;55.28
40596;BME280;26304;48.794;9.820;2023-05-20T21:38:28;96064.69;;;18.95;54.90
40596;BME280;26304;48.794;9.820;2023-05-20T21:44:11;96070.75;;;18.85;55.27
40596;BME280;26304;48.794;9.820;2023-05-20T21:49:54;96070.72;;;18.81;55.53
40596;BME280;26304;48.794;9.820;2023-05-20T21:55:36;96057.94;;;18.87;55.67
40596;BME280;26304;48.794;9.820;2023-05-20T22:01:20;96060.94;;;18.85;55.67
40596;BME280;26304;48.794;9.820;2023-05-20T22:07:03;96054.19;;;18.84;55.40
40596;BME280;26304;48.794;9.820;2023-05-20T22:12:45;96053.41;;;18.95;55.58
40596;BME280;26304;48.794;9.820;2023-05-20T22:18:32;96051.91;;;18.94;55.66
40596;BME280;26304;48.794;9.820;2023-05-20T22:24:14;96045.91;;;18.90;56.03
40596;BME280;26304;48.794;9.820;2023-05-20T22:29:57;96036.47;;;18.78;56.12
40596;BME280;26304;48.794;9.820;2023-05-20T22:35:41;96028.59;;;18.74;56.73
40596;BME280;26304;48.794;9.820;2023-05-20T22:41:23;96027.09;;;18.77;56.54
40596;BME280;26304;48.794;9.820;2023-05-20T22:47:06;96025.56;;;18.76;56.46
40596;BME280;26304;48.794;9.820;2023-05-20T22:52:50;96012.06;;;18.63;57.15
40596;BME280;26304;48.794;9.820;2023-05-20T22:58:32;96004.53;;;18.68;57.20
40596;BME280;26304;48.794;9.820;2023-05-20T23:04:19;96005.28;;;18.65;57.23
40596;BME280;26304;48.794;9.820;2023-05-20T23:10:03;95998.50;;;18.68;57.20
40596;BME280;26304;48.794;9.820;2023-05-20T23:15:45;96000.78;;;18.59;57.77
40596;BME280;26304;48.794;9.820;2023-05-20T23:21:28;95988.72;;;18.65;57.41
40596;BME280;26304;48.794;9.820;2023-05-20T23:27:13;95995.13;;;18.67;57.88
40596;BME280;26304;48.794;9.820;2023-05-20T23:32:55;95982.38;;;18.51;58.39
40596;BME280;26304;48.794;9.820;2023-05-20T23:38:38;95985.72;;;18.63;57.94
40596;BME280;26304;48.794;9.820;2023-05-20T23:44:21;95989.16;;;18.52;58.44
40596;BME280;26304;48.794;9.820;2023-05-20T23:50:04;95986.88;;;18.55;58.73
40596;BME280;26304;48.794;9.820;2023-05-20T23:55:47;95984.63;;;18.49;58.93
